Flight ASXVIP1X

  • Submitted By: Krzysztof H. Blaszkow
  • Departure Airport: Bornholm Rønne (EKRN)
  • Arrival Airport: Gdansk im. Lecha Walesy (EPGD)
  • Aircraft: BE58 (SP-MVL)
  • Flight Time: 01.08.54
  • Date Submitted: 04/15/2017
  • Status: Accepted
Flight Details
Gross Revenue:
(5 load / € 400.00 per unit
€ 2,000.00
Fuel Cost:
(55.3383 fuel used @ 0.45 / unit)
€ 24.90

Additional Log Information:

View Log

[11:13] - Carenado BARON B58 METAL BLUE
[11:13] - Flight ASXVIP1X is ready to depart EKRN with a final destination of EPGD.
[11:13] - Parking Brake Applied
[11:13] - Navigation Lights ON
[11:13] - Beacon Light ON
[11:13] - Recognition Lights ON
[11:13] - Wing Lights ON
[11:13] - Logo Lights ON
[11:13] - Boarding
[11:13] - ADF1 - 284.0
[11:13] - ADF2 - 240.0
[11:13] - NAV1 - 110.30
[11:13] - NAV2 - 116.10
[11:13] - COM1 - 122.80
[11:13] - COM2 - 123.45
[11:13] - Transponder - 4537
[11:18] - Instrument Lights ON 3AGL
[11:18] - Instrument Lights OFF 3AGL
[11:20] - Taxi Lights ON 3AGL
[11:20] - Engine 1 Started
[11:20] - Engine 2 Started
[11:20] - Parking Brake Released
[11:22] - Landing Lights ON 3AGL
[11:22] - Taxi Lights OFF 3AGL
[11:22] - Strobe Lights ON 3AGL
[11:25] - Taxiing to Runway
[11:26] - Flaps to position 1
[11:27] - Taking Off with 5 passengers on board
[11:27] - Take off at 109kts, with a pitch of 2deg and 433lbs of fuel on board
[11:27] - Wind Heading 121 | Wind Speed 9kts | Temperature 3 deg C
[11:27] - METAR Departure: EKRN 150950Z AUTO 09010KT 9999NDV RA OVC010/// 04/03 Q1005

[11:27] - Flaps to position 0 at 128ft and 120kts
[11:27] - Gear up at 138AGL
[11:27] - Climbing to TOC
[11:30] - NAV1 - 112.00
[11:37] - Landing Lights OFF 9475AGL
[11:37] - AutoPilot Engaged at 9501AGL
[11:40] - NAV1 - 116.10
[11:45] - TOC reached
[11:45] - Cruise started
[12:04] - TOD reached
[12:04] - Descending to destination
[12:07] - Landing Lights ON 9107AGL
[12:09] - Landing Shortly
[12:13] - AutoPilot Disengaged at 1851AGL
[12:14] - Flaps to position 1 at 2572ft and 133kts
[12:14] - Gear down at 1952AGL
[12:17] - Landed at -131fpm. With 315lbs of fuel onboard and a pitch angle of 2deg.
[12:17] - Wind Heading 9 | Wind Speed 2kts | Temperature 6 deg C
[12:17] - METAR Arrival: EPGD 151100Z 05007KT 9999 -RA SCT005 BKN011 05/04 Q1006

[12:17] - Flaps to position 0
[12:17] - Taxiing to Gate
[12:18] - Landing Lights OFF 0AGL
[12:18] - Strobe Lights OFF 0AGL
[12:18] - Taxi Lights ON 0AGL
[12:20] - Parking Brake Applied
[12:20] - Parking Brake Released
[12:20] - Parking Brake Applied
[12:20] - Arrived safely at EPGD. We hope you enjoyed your flight!
[12:21] - Engine 2 Stopped
[12:21] - Engine 1 Stopped
[12:22] - Taxi Lights OFF 0AGL
[12:22] - Carenado BARON B58 METAL BLUE
[12:22] - MaxSim Rate: 1x
[12:22] - SiouxAcars ver: 1.0.1.2

Route Map